sensor_id;sensor_type;location;lat;lon;timestamp;P1;durP1;ratioP1;P2;durP2;ratioP2
83487;SDS011;73424;49.994;8.184;2023-12-20T00:00:55;5.50;;;3.50;;
83487;SDS011;73424;49.994;8.184;2023-12-20T00:03:20;4.80;;;3.28;;
83487;SDS011;73424;49.994;8.184;2023-12-20T00:05:47;5.13;;;3.03;;
83487;SDS011;73424;49.994;8.184;2023-12-20T00:08:12;4.97;;;3.22;;
83487;SDS011;73424;49.994;8.184;2023-12-20T00:10:37;4.93;;;3.40;;
83487;SDS011;73424;49.994;8.184;2023-12-20T00:13:03;5.07;;;3.27;;
83487;SDS011;73424;49.994;8.184;2023-12-20T00:15:28;6.05;;;3.30;;
83487;SDS011;73424;49.994;8.184;2023-12-20T00:17:53;5.17;;;3.50;;
83487;SDS011;73424;49.994;8.184;2023-12-20T00:20:18;5.47;;;3.20;;
83487;SDS011;73424;49.994;8.184;2023-12-20T00:22:44;6.72;;;3.65;;
83487;SDS011;73424;49.994;8.184;2023-12-20T00:25:09;5.00;;;3.40;;
83487;SDS011;73424;49.994;8.184;2023-12-20T00:27:35;3.40;;;2.53;;
83487;SDS011;73424;49.994;8.184;2023-12-20T00:30:00;5.00;;;3.20;;
83487;SDS011;73424;49.994;8.184;2023-12-20T00:32:25;5.00;;;3.00;;
83487;SDS011;73424;49.994;8.184;2023-12-20T00:34:50;6.90;;;3.67;;
83487;SDS011;73424;49.994;8.184;2023-12-20T00:37:16;5.60;;;3.33;;
83487;SDS011;73424;49.994;8.184;2023-12-20T00:39:41;5.43;;;3.10;;
83487;SDS011;73424;49.994;8.184;2023-12-20T00:42:07;5.72;;;3.30;;
83487;SDS011;73424;49.994;8.184;2023-12-20T00:44:32;4.17;;;2.73;;
83487;SDS011;73424;49.994;8.184;2023-12-20T00:46:57;4.73;;;3.03;;
83487;SDS011;73424;49.994;8.184;2023-12-20T00:49:23;4.50;;;2.90;;
83487;SDS011;73424;49.994;8.184;2023-12-20T00:51:48;5.10;;;3.20;;
83487;SDS011;73424;49.994;8.184;2023-12-20T00:54:15;4.55;;;3.28;;
83487;SDS011;73424;49.994;8.184;2023-12-20T00:56:41;5.68;;;3.10;;
83487;SDS011;73424;49.994;8.184;2023-12-20T00:59:06;4.23;;;2.40;;
83487;SDS011;73424;49.994;8.184;2023-12-20T01:01:31;4.77;;;3.23;;
83487;SDS011;73424;49.994;8.184;2023-12-20T01:03:58;3.10;;;2.25;;
83487;SDS011;73424;49.994;8.184;2023-12-20T01:06:23;4.00;;;2.60;;
83487;SDS011;73424;49.994;8.184;2023-12-20T01:08:48;3.93;;;2.63;;
83487;SDS011;73424;49.994;8.184;2023-12-20T01:11:13;4.37;;;2.73;;
83487;SDS011;73424;49.994;8.184;2023-12-20T01:13:39;4.43;;;3.03;;
83487;SDS011;73424;49.994;8.184;2023-12-20T01:16:04;3.47;;;2.40;;
83487;SDS011;73424;49.994;8.184;2023-12-20T01:18:30;3.92;;;2.30;;
83487;SDS011;73424;49.994;8.184;2023-12-20T01:20:56;4.03;;;2.60;;
83487;SDS011;73424;49.994;8.184;2023-12-20T01:23:21;4.03;;;2.22;;
83487;SDS011;73424;49.994;8.184;2023-12-20T01:25:46;3.87;;;2.73;;
83487;SDS011;73424;49.994;8.184;2023-12-20T01:28:12;3.90;;;2.40;;
83487;SDS011;73424;49.994;8.184;2023-12-20T01:30:37;3.37;;;2.33;;
83487;SDS011;73424;49.994;8.184;2023-12-20T01:33:02;3.30;;;2.45;;
83487;SDS011;73424;49.994;8.184;2023-12-20T01:35:28;3.60;;;2.53;;
83487;SDS011;73424;49.994;8.184;2023-12-20T01:37:53;3.13;;;2.13;;
83487;SDS011;73424;49.994;8.184;2023-12-20T01:40:21;3.70;;;2.00;;
83487;SDS011;73424;49.994;8.184;2023-12-20T01:42:47;3.72;;;2.20;;
83487;SDS011;73424;49.994;8.184;2023-12-20T01:45:12;3.90;;;2.63;;
83487;SDS011;73424;49.994;8.184;2023-12-20T01:47:38;2.87;;;1.80;;
83487;SDS011;73424;49.994;8.184;2023-12-20T01:50:03;4.17;;;2.13;;
83487;SDS011;73424;49.994;8.184;2023-12-20T01:52:29;3.50;;;2.03;;
83487;SDS011;73424;49.994;8.184;2023-12-20T01:54:54;3.03;;;1.80;;
83487;SDS011;73424;49.994;8.184;2023-12-20T01:57:26;2.72;;;1.73;;
83487;SDS011;73424;49.994;8.184;2023-12-20T01:59:52;2.70;;;1.60;;
83487;SDS011;73424;49.994;8.184;2023-12-20T02:02:17;2.63;;;1.65;;
83487;SDS011;73424;49.994;8.184;2023-12-20T02:04:43;2.58;;;1.65;;
83487;SDS011;73424;49.994;8.184;2023-12-20T02:07:08;2.70;;;1.67;;
83487;SDS011;73424;49.994;8.184;2023-12-20T02:09:34;2.58;;;1.80;;
83487;SDS011;73424;49.994;8.184;2023-12-20T02:12:00;3.77;;;2.00;;
83487;SDS011;73424;49.994;8.184;2023-12-20T02:14:25;2.55;;;1.33;;
83487;SDS011;73424;49.994;8.184;2023-12-20T02:16:51;2.70;;;1.63;;
83487;SDS011;73424;49.994;8.184;2023-12-20T02:19:16;2.55;;;1.65;;
83487;SDS011;73424;49.994;8.184;2023-12-20T02:21:42;2.30;;;1.42;;
83487;SDS011;73424;49.994;8.184;2023-12-20T02:24:07;2.73;;;1.47;;
83487;SDS011;73424;49.994;8.184;2023-12-20T02:26:33;2.33;;;1.40;;
83487;SDS011;73424;49.994;8.184;2023-12-20T02:28:59;2.17;;;1.20;;
83487;SDS011;73424;49.994;8.184;2023-12-20T02:31:24;2.75;;;1.60;;
83487;SDS011;73424;49.994;8.184;2023-12-20T02:33:50;1.97;;;1.37;;
83487;SDS011;73424;49.994;8.184;2023-12-20T02:36:15;2.63;;;1.40;;
83487;SDS011;73424;49.994;8.184;2023-12-20T02:38:40;2.35;;;1.60;;
83487;SDS011;73424;49.994;8.184;2023-12-20T02:41:06;2.63;;;1.35;;
83487;SDS011;73424;49.994;8.184;2023-12-20T02:43:31;2.43;;;1.57;;
83487;SDS011;73424;49.994;8.184;2023-12-20T02:45:56;2.00;;;1.33;;
83487;SDS011;73424;49.994;8.184;2023-12-20T02:48:22;3.33;;;1.63;;
83487;SDS011;73424;49.994;8.184;2023-12-20T02:50:47;3.97;;;1.13;;
83487;SDS011;73424;49.994;8.184;2023-12-20T02:53:14;2.72;;;1.40;;
83487;SDS011;73424;49.994;8.184;2023-12-20T02:55:39;2.67;;;1.83;;
83487;SDS011;73424;49.994;8.184;2023-12-20T02:58:05;2.05;;;1.15;;
83487;SDS011;73424;49.994;8.184;2023-12-20T03:00:30;2.53;;;1.10;;
83487;SDS011;73424;49.994;8.184;2023-12-20T03:02:55;1.80;;;1.17;;
83487;SDS011;73424;49.994;8.184;2023-12-20T03:05:20;1.93;;;1.07;;
83487;SDS011;73424;49.994;8.184;2023-12-20T03:07:46;2.22;;;1.25;;
83487;SDS011;73424;49.994;8.184;2023-12-20T03:10:11;2.15;;;1.17;;
83487;SDS011;73424;49.994;8.184;2023-12-20T03:12:36;2.30;;;1.10;;
83487;SDS011;73424;49.994;8.184;2023-12-20T03:15:02;1.83;;;1.20;;
83487;SDS011;73424;49.994;8.184;2023-12-20T03:17:27;2.65;;;1.67;;
83487;SDS011;73424;49.994;8.184;2023-12-20T03:19:52;3.17;;;1.30;;
83487;SDS011;73424;49.994;8.184;2023-12-20T03:22:18;1.77;;;1.10;;
83487;SDS011;73424;49.994;8.184;2023-12-20T03:24:43;2.33;;;1.60;;
83487;SDS011;73424;49.994;8.184;2023-12-20T03:27:08;2.60;;;1.50;;
83487;SDS011;73424;49.994;8.184;2023-12-20T03:29:33;2.17;;;1.10;;
83487;SDS011;73424;49.994;8.184;2023-12-20T03:31:59;2.17;;;1.48;;
83487;SDS011;73424;49.994;8.184;2023-12-20T03:34:24;2.03;;;1.40;;
83487;SDS011;73424;49.994;8.184;2023-12-20T03:36:49;2.00;;;1.30;;
83487;SDS011;73424;49.994;8.184;2023-12-20T03:39:15;2.33;;;1.30;;
83487;SDS011;73424;49.994;8.184;2023-12-20T03:41:40;2.23;;;1.53;;
83487;SDS011;73424;49.994;8.184;2023-12-20T03:44:05;2.25;;;1.23;;
83487;SDS011;73424;49.994;8.184;2023-12-20T03:46:30;2.05;;;1.10;;
83487;SDS011;73424;49.994;8.184;2023-12-20T03:48:56;2.10;;;1.10;;
83487;SDS011;73424;49.994;8.184;2023-12-20T03:51:22;2.35;;;1.50;;
83487;SDS011;73424;49.994;8.184;2023-12-20T03:53:47;1.90;;;0.90;;
83487;SDS011;73424;49.994;8.184;2023-12-20T03:56:12;2.25;;;1.42;;
83487;SDS011;73424;49.994;8.184;2023-12-20T03:58:38;3.10;;;1.17;;
83487;SDS011;73424;49.994;8.184;2023-12-20T04:01:03;2.00;;;0.90;;
83487;SDS011;73424;49.994;8.184;2023-12-20T04:03:28;2.13;;;1.20;;
83487;SDS011;73424;49.994;8.184;2023-12-20T04:05:53;3.43;;;1.20;;
83487;SDS011;73424;49.994;8.184;2023-12-20T04:08:19;2.40;;;1.30;;
83487;SDS011;73424;49.994;8.184;2023-12-20T04:10:45;2.55;;;1.73;;
83487;SDS011;73424;49.994;8.184;2023-12-20T04:13:10;1.80;;;1.20;;
83487;SDS011;73424;49.994;8.184;2023-12-20T04:15:35;2.63;;;1.70;;
83487;SDS011;73424;49.994;8.184;2023-12-20T04:18:01;2.10;;;1.20;;
83487;SDS011;73424;49.994;8.184;2023-12-20T04:20:26;2.08;;;1.30;;
83487;SDS011;73424;49.994;8.184;2023-12-20T04:22:51;2.07;;;1.10;;
83487;SDS011;73424;49.994;8.184;2023-12-20T04:25:16;3.73;;;1.30;;
83487;SDS011;73424;49.994;8.184;2023-12-20T04:27:42;2.23;;;1.27;;
83487;SDS011;73424;49.994;8.184;2023-12-20T04:30:07;3.30;;;0.80;;
83487;SDS011;73424;49.994;8.184;2023-12-20T04:32:33;1.90;;;1.00;;
83487;SDS011;73424;49.994;8.184;2023-12-20T04:34:58;2.88;;;1.00;;
83487;SDS011;73424;49.994;8.184;2023-12-20T04:37:23;2.30;;;0.90;;
83487;SDS011;73424;49.994;8.184;2023-12-20T04:39:49;3.05;;;1.05;;
83487;SDS011;73424;49.994;8.184;2023-12-20T04:42:15;2.65;;;1.33;;
83487;SDS011;73424;49.994;8.184;2023-12-20T04:44:40;2.38;;;1.05;;
83487;SDS011;73424;49.994;8.184;2023-12-20T04:47:05;3.40;;;1.13;;
83487;SDS011;73424;49.994;8.184;2023-12-20T04:49:30;3.10;;;1.20;;
83487;SDS011;73424;49.994;8.184;2023-12-20T04:51:56;2.87;;;1.20;;
83487;SDS011;73424;49.994;8.184;2023-12-20T04:54:21;4.90;;;1.20;;
83487;SDS011;73424;49.994;8.184;2023-12-20T04:56:46;3.85;;;1.10;;
83487;SDS011;73424;49.994;8.184;2023-12-20T04:59:12;4.47;;;2.05;;
83487;SDS011;73424;49.994;8.184;2023-12-20T05:01:38;3.38;;;1.42;;
83487;SDS011;73424;49.994;8.184;2023-12-20T05:04:03;3.78;;;1.13;;
83487;SDS011;73424;49.994;8.184;2023-12-20T05:06:29;3.42;;;1.10;;
83487;SDS011;73424;49.994;8.184;2023-12-20T05:08:54;5.97;;;1.10;;
83487;SDS011;73424;49.994;8.184;2023-12-20T05:11:19;2.73;;;1.03;;
83487;SDS011;73424;49.994;8.184;2023-12-20T05:13:44;3.87;;;1.17;;
83487;SDS011;73424;49.994;8.184;2023-12-20T05:16:10;6.23;;;1.20;;
83487;SDS011;73424;49.994;8.184;2023-12-20T05:18:35;4.05;;;1.52;;
83487;SDS011;73424;49.994;8.184;2023-12-20T05:21:00;3.77;;;1.33;;
83487;SDS011;73424;49.994;8.184;2023-12-20T05:23:26;2.03;;;1.05;;
83487;SDS011;73424;49.994;8.184;2023-12-20T05:25:51;3.65;;;1.35;;
83487;SDS011;73424;49.994;8.184;2023-12-20T05:28:16;3.23;;;1.07;;
83487;SDS011;73424;49.994;8.184;2023-12-20T05:30:42;2.17;;;0.90;;
83487;SDS011;73424;49.994;8.184;2023-12-20T05:33:08;3.88;;;1.13;;
83487;SDS011;73424;49.994;8.184;2023-12-20T05:35:34;2.70;;;1.83;;
83487;SDS011;73424;49.994;8.184;2023-12-20T05:37:59;5.33;;;1.40;;
83487;SDS011;73424;49.994;8.184;2023-12-20T05:40:24;5.30;;;1.23;;
83487;SDS011;73424;49.994;8.184;2023-12-20T05:42:50;4.80;;;1.33;;
83487;SDS011;73424;49.994;8.184;2023-12-20T05:45:15;3.33;;;1.27;;
83487;SDS011;73424;49.994;8.184;2023-12-20T05:47:40;2.57;;;1.40;;
83487;SDS011;73424;49.994;8.184;2023-12-20T05:50:05;4.17;;;1.20;;
83487;SDS011;73424;49.994;8.184;2023-12-20T05:52:31;3.63;;;1.48;;
83487;SDS011;73424;49.994;8.184;2023-12-20T05:54:56;2.97;;;1.73;;
83487;SDS011;73424;49.994;8.184;2023-12-20T05:57:26;5.60;;;1.45;;
83487;SDS011;73424;49.994;8.184;2023-12-20T05:59:51;3.65;;;1.73;;
83487;SDS011;73424;49.994;8.184;2023-12-20T06:02:17;7.95;;;1.95;;
83487;SDS011;73424;49.994;8.184;2023-12-20T06:04:42;4.68;;;1.60;;
83487;SDS011;73424;49.994;8.184;2023-12-20T06:07:10;4.70;;;1.75;;
83487;SDS011;73424;49.994;8.184;2023-12-20T06:09:37;7.18;;;1.75;;
83487;SDS011;73424;49.994;8.184;2023-12-20T06:12:02;6.00;;;1.97;;
83487;SDS011;73424;49.994;8.184;2023-12-20T06:14:27;2.50;;;1.35;;
83487;SDS011;73424;49.994;8.184;2023-12-20T06:16:52;6.03;;;1.77;;
83487;SDS011;73424;49.994;8.184;2023-12-20T06:19:18;6.55;;;2.42;;
83487;SDS011;73424;49.994;8.184;2023-12-20T06:21:43;4.25;;;1.50;;
83487;SDS011;73424;49.994;8.184;2023-12-20T06:24:08;4.40;;;1.87;;
83487;SDS011;73424;49.994;8.184;2023-12-20T06:26:34;2.47;;;1.42;;
83487;SDS011;73424;49.994;8.184;2023-12-20T06:28:59;5.00;;;3.03;;
83487;SDS011;73424;49.994;8.184;2023-12-20T06:31:25;6.07;;;2.00;;
83487;SDS011;73424;49.994;8.184;2023-12-20T06:33:50;5.97;;;2.20;;
83487;SDS011;73424;49.994;8.184;2023-12-20T06:36:22;8.07;;;2.47;;
83487;SDS011;73424;49.994;8.184;2023-12-20T06:38:47;3.10;;;1.80;;
83487;SDS011;73424;49.994;8.184;2023-12-20T06:41:13;8.07;;;1.63;;
83487;SDS011;73424;49.994;8.184;2023-12-20T06:43:39;4.53;;;1.70;;
83487;SDS011;73424;49.994;8.184;2023-12-20T06:46:04;5.57;;;1.73;;
83487;SDS011;73424;49.994;8.184;2023-12-20T06:48:29;2.90;;;1.20;;
83487;SDS011;73424;49.994;8.184;2023-12-20T06:50:55;3.07;;;1.33;;
83487;SDS011;73424;49.994;8.184;2023-12-20T06:53:20;6.87;;;1.73;;
83487;SDS011;73424;49.994;8.184;2023-12-20T06:55:45;12.60;;;2.33;;
83487;SDS011;73424;49.994;8.184;2023-12-20T06:58:10;5.23;;;1.83;;
83487;SDS011;73424;49.994;8.184;2023-12-20T07:00:36;3.38;;;1.60;;
83487;SDS011;73424;49.994;8.184;2023-12-20T07:03:01;4.95;;;1.65;;
83487;SDS011;73424;49.994;8.184;2023-12-20T07:05:27;5.63;;;1.70;;
83487;SDS011;73424;49.994;8.184;2023-12-20T07:07:52;3.83;;;1.42;;
83487;SDS011;73424;49.994;8.184;2023-12-20T07:10:17;6.03;;;2.27;;
83487;SDS011;73424;49.994;8.184;2023-12-20T07:12:43;6.20;;;2.40;;
83487;SDS011;73424;49.994;8.184;2023-12-20T07:15:09;5.82;;;2.05;;
83487;SDS011;73424;49.994;8.184;2023-12-20T07:17:34;4.50;;;2.15;;
83487;SDS011;73424;49.994;8.184;2023-12-20T07:19:59;6.17;;;2.23;;
83487;SDS011;73424;49.994;8.184;2023-12-20T07:22:28;4.28;;;1.73;;
83487;SDS011;73424;49.994;8.184;2023-12-20T07:24:57;5.25;;;1.67;;
83487;SDS011;73424;49.994;8.184;2023-12-20T07:27:23;5.53;;;1.55;;
83487;SDS011;73424;49.994;8.184;2023-12-20T07:29:49;5.95;;;1.60;;
83487;SDS011;73424;49.994;8.184;2023-12-20T07:32:14;5.33;;;1.60;;
83487;SDS011;73424;49.994;8.184;2023-12-20T07:34:39;7.28;;;2.53;;
83487;SDS011;73424;49.994;8.184;2023-12-20T07:37:05;5.03;;;1.38;;
83487;SDS011;73424;49.994;8.184;2023-12-20T07:39:30;5.55;;;1.70;;
83487;SDS011;73424;49.994;8.184;2023-12-20T07:41:56;9.18;;;2.25;;
83487;SDS011;73424;49.994;8.184;2023-12-20T07:44:21;8.73;;;2.33;;
83487;SDS011;73424;49.994;8.184;2023-12-20T07:46:46;8.85;;;3.30;;
83487;SDS011;73424;49.994;8.184;2023-12-20T07:49:13;5.60;;;1.73;;
83487;SDS011;73424;49.994;8.184;2023-12-20T07:51:38;5.57;;;1.70;;
83487;SDS011;73424;49.994;8.184;2023-12-20T07:54:04;5.27;;;1.60;;
83487;SDS011;73424;49.994;8.184;2023-12-20T07:56:29;3.20;;;1.48;;
83487;SDS011;73424;49.994;8.184;2023-12-20T07:58:55;5.17;;;1.43;;
83487;SDS011;73424;49.994;8.184;2023-12-20T08:01:20;5.67;;;1.50;;
83487;SDS011;73424;49.994;8.184;2023-12-20T08:03:45;4.38;;;1.50;;
83487;SDS011;73424;49.994;8.184;2023-12-20T08:06:11;8.45;;;1.75;;
83487;SDS011;73424;49.994;8.184;2023-12-20T08:08:36;5.70;;;1.60;;
83487;SDS011;73424;49.994;8.184;2023-12-20T08:11:02;4.83;;;1.33;;
83487;SDS011;73424;49.994;8.184;2023-12-20T08:13:27;7.38;;;1.92;;
83487;SDS011;73424;49.994;8.184;2023-12-20T08:15:53;2.80;;;1.20;;
83487;SDS011;73424;49.994;8.184;2023-12-20T08:18:19;3.47;;;1.88;;
83487;SDS011;73424;49.994;8.184;2023-12-20T08:20:44;7.65;;;1.50;;
83487;SDS011;73424;49.994;8.184;2023-12-20T08:23:09;4.60;;;1.98;;
83487;SDS011;73424;49.994;8.184;2023-12-20T08:25:35;3.38;;;1.30;;
83487;SDS011;73424;49.994;8.184;2023-12-20T08:28:01;6.32;;;1.42;;
83487;SDS011;73424;49.994;8.184;2023-12-20T08:30:27;6.13;;;1.98;;
83487;SDS011;73424;49.994;8.184;2023-12-20T08:32:53;5.87;;;2.70;;
83487;SDS011;73424;49.994;8.184;2023-12-20T08:35:18;3.60;;;1.97;;
83487;SDS011;73424;49.994;8.184;2023-12-20T08:37:43;5.65;;;1.73;;
83487;SDS011;73424;49.994;8.184;2023-12-20T08:40:09;4.10;;;1.50;;
83487;SDS011;73424;49.994;8.184;2023-12-20T08:42:34;6.60;;;1.63;;
83487;SDS011;73424;49.994;8.184;2023-12-20T08:45:00;6.60;;;2.30;;
83487;SDS011;73424;49.994;8.184;2023-12-20T08:47:25;4.95;;;1.70;;
83487;SDS011;73424;49.994;8.184;2023-12-20T08:49:51;6.13;;;1.50;;
83487;SDS011;73424;49.994;8.184;2023-12-20T08:52:21;5.38;;;1.55;;
83487;SDS011;73424;49.994;8.184;2023-12-20T08:54:46;5.60;;;2.03;;
83487;SDS011;73424;49.994;8.184;2023-12-20T08:57:12;4.50;;;1.47;;
83487;SDS011;73424;49.994;8.184;2023-12-20T08:59:37;4.30;;;1.67;;
83487;SDS011;73424;49.994;8.184;2023-12-20T09:02:02;6.10;;;1.30;;
83487;SDS011;73424;49.994;8.184;2023-12-20T09:04:28;6.40;;;1.65;;
83487;SDS011;73424;49.994;8.184;2023-12-20T09:06:54;4.85;;;1.88;;
83487;SDS011;73424;49.994;8.184;2023-12-20T09:09:19;5.78;;;2.03;;
83487;SDS011;73424;49.994;8.184;2023-12-20T09:11:44;4.53;;;1.30;;
83487;SDS011;73424;49.994;8.184;2023-12-20T09:14:12;6.18;;;1.95;;
83487;SDS011;73424;49.994;8.184;2023-12-20T09:16:37;4.47;;;1.50;;
83487;SDS011;73424;49.994;8.184;2023-12-20T09:19:02;9.23;;;2.40;;
83487;SDS011;73424;49.994;8.184;2023-12-20T09:21:28;3.15;;;1.30;;
83487;SDS011;73424;49.994;8.184;2023-12-20T09:23:53;7.10;;;1.83;;
83487;SDS011;73424;49.994;8.184;2023-12-20T09:26:19;4.30;;;1.70;;
83487;SDS011;73424;49.994;8.184;2023-12-20T09:28:44;5.47;;;1.77;;
83487;SDS011;73424;49.994;8.184;2023-12-20T09:31:10;4.70;;;1.30;;
83487;SDS011;73424;49.994;8.184;2023-12-20T09:33:35;5.57;;;2.83;;
83487;SDS011;73424;49.994;8.184;2023-12-20T09:36:00;4.47;;;1.70;;
83487;SDS011;73424;49.994;8.184;2023-12-20T09:38:25;7.38;;;1.73;;
83487;SDS011;73424;49.994;8.184;2023-12-20T09:40:51;5.72;;;1.52;;
83487;SDS011;73424;49.994;8.184;2023-12-20T09:43:18;4.10;;;1.40;;
83487;SDS011;73424;49.994;8.184;2023-12-20T09:45:47;7.40;;;1.92;;
83487;SDS011;73424;49.994;8.184;2023-12-20T09:48:13;4.78;;;1.40;;
83487;SDS011;73424;49.994;8.184;2023-12-20T09:50:42;7.85;;;1.50;;
83487;SDS011;73424;49.994;8.184;2023-12-20T09:53:09;7.15;;;2.35;;
83487;SDS011;73424;49.994;8.184;2023-12-20T09:55:39;8.63;;;1.80;;
83487;SDS011;73424;49.994;8.184;2023-12-20T09:58:06;5.13;;;1.42;;
83487;SDS011;73424;49.994;8.184;2023-12-20T10:00:33;5.40;;;1.40;;
83487;SDS011;73424;49.994;8.184;2023-12-20T10:03:00;5.65;;;1.80;;
83487;SDS011;73424;49.994;8.184;2023-12-20T10:05:27;7.85;;;1.85;;
83487;SDS011;73424;49.994;8.184;2023-12-20T10:07:53;8.00;;;2.00;;
83487;SDS011;73424;49.994;8.184;2023-12-20T10:10:18;4.53;;;1.67;;
83487;SDS011;73424;49.994;8.184;2023-12-20T10:15:29;7.30;;;1.88;;
83487;SDS011;73424;49.994;8.184;2023-12-20T10:17:54;5.90;;;1.50;;
83487;SDS011;73424;49.994;8.184;2023-12-20T10:20:20;5.97;;;1.92;;
83487;SDS011;73424;49.994;8.184;2023-12-20T10:22:45;5.05;;;1.65;;
83487;SDS011;73424;49.994;8.184;2023-12-20T10:25:11;8.02;;;2.65;;
83487;SDS011;73424;49.994;8.184;2023-12-20T10:27:36;7.97;;;1.50;;
83487;SDS011;73424;49.994;8.184;2023-12-20T10:30:02;6.88;;;1.63;;
83487;SDS011;73424;49.994;8.184;2023-12-20T10:32:27;3.45;;;1.40;;
83487;SDS011;73424;49.994;8.184;2023-12-20T10:34:53;4.68;;;1.67;;
83487;SDS011;73424;49.994;8.184;2023-12-20T10:37:19;4.07;;;1.52;;
83487;SDS011;73424;49.994;8.184;2023-12-20T10:39:49;7.10;;;1.83;;
83487;SDS011;73424;49.994;8.184;2023-12-20T10:42:17;5.10;;;1.55;;
83487;SDS011;73424;49.994;8.184;2023-12-20T10:44:45;4.90;;;1.60;;
83487;SDS011;73424;49.994;8.184;2023-12-20T10:47:12;8.88;;;2.17;;
83487;SDS011;73424;49.994;8.184;2023-12-20T10:49:38;5.38;;;1.63;;
83487;SDS011;73424;49.994;8.184;2023-12-20T10:52:04;5.03;;;1.80;;
83487;SDS011;73424;49.994;8.184;2023-12-20T10:54:30;6.57;;;1.48;;
83487;SDS011;73424;49.994;8.184;2023-12-20T10:56:57;4.90;;;1.75;;
83487;SDS011;73424;49.994;8.184;2023-12-20T10:59:23;7.88;;;1.83;;
83487;SDS011;73424;49.994;8.184;2023-12-20T11:01:50;5.32;;;1.35;;
83487;SDS011;73424;49.994;8.184;2023-12-20T11:04:19;5.50;;;1.73;;
83487;SDS011;73424;49.994;8.184;2023-12-20T11:07:04;6.32;;;1.65;;
83487;SDS011;73424;49.994;8.184;2023-12-20T11:09:41;2.85;;;1.25;;
83487;SDS011;73424;49.994;8.184;2023-12-20T11:12:20;7.20;;;1.85;;
83487;SDS011;73424;49.994;8.184;2023-12-20T11:15:08;5.38;;;1.20;;
83487;SDS011;73424;49.994;8.184;2023-12-20T11:17:35;6.40;;;1.92;;
83487;SDS011;73424;49.994;8.184;2023-12-20T11:22:27;4.22;;;1.25;;
83487;SDS011;73424;49.994;8.184;2023-12-20T11:24:58;4.57;;;1.25;;
83487;SDS011;73424;49.994;8.184;2023-12-20T11:27:27;4.78;;;1.60;;
83487;SDS011;73424;49.994;8.184;2023-12-20T11:29:53;5.27;;;2.00;;
83487;SDS011;73424;49.994;8.184;2023-12-20T11:37:28;3.38;;;1.25;;
83487;SDS011;73424;49.994;8.184;2023-12-20T11:40:05;4.57;;;1.52;;
83487;SDS011;73424;49.994;8.184;2023-12-20T11:42:42;4.88;;;1.70;;
83487;SDS011;73424;49.994;8.184;2023-12-20T11:45:09;2.97;;;1.17;;
83487;SDS011;73424;49.994;8.184;2023-12-20T11:47:35;11.60;;;1.52;;
83487;SDS011;73424;49.994;8.184;2023-12-20T11:50:01;6.82;;;1.20;;
83487;SDS011;73424;49.994;8.184;2023-12-20T11:52:29;4.78;;;1.58;;
83487;SDS011;73424;49.994;8.184;2023-12-20T11:54:54;9.30;;;2.00;;
83487;SDS011;73424;49.994;8.184;2023-12-20T11:57:19;6.23;;;1.87;;
83487;SDS011;73424;49.994;8.184;2023-12-20T11:59:45;5.97;;;1.35;;
83487;SDS011;73424;49.994;8.184;2023-12-20T12:02:11;3.90;;;1.50;;
83487;SDS011;73424;49.994;8.184;2023-12-20T12:04:37;4.97;;;2.22;;
83487;SDS011;73424;49.994;8.184;2023-12-20T12:07:02;7.07;;;1.40;;
83487;SDS011;73424;49.994;8.184;2023-12-20T12:09:28;3.85;;;1.25;;
83487;SDS011;73424;49.994;8.184;2023-12-20T12:11:53;6.30;;;1.25;;
83487;SDS011;73424;49.994;8.184;2023-12-20T12:14:19;6.18;;;2.03;;
83487;SDS011;73424;49.994;8.184;2023-12-20T12:16:45;4.50;;;1.60;;
83487;SDS011;73424;49.994;8.184;2023-12-20T12:19:23;4.63;;;1.35;;
83487;SDS011;73424;49.994;8.184;2023-12-20T12:21:50;3.75;;;1.30;;
83487;SDS011;73424;49.994;8.184;2023-12-20T12:24:19;4.43;;;1.30;;
83487;SDS011;73424;49.994;8.184;2023-12-20T12:26:49;6.13;;;2.35;;
83487;SDS011;73424;49.994;8.184;2023-12-20T12:29:17;4.30;;;1.50;;
83487;SDS011;73424;49.994;8.184;2023-12-20T12:31:43;5.25;;;2.00;;
83487;SDS011;73424;49.994;8.184;2023-12-20T12:34:08;5.77;;;2.00;;
83487;SDS011;73424;49.994;8.184;2023-12-20T12:36:34;6.38;;;1.98;;
83487;SDS011;73424;49.994;8.184;2023-12-20T12:39:02;4.13;;;1.33;;
83487;SDS011;73424;49.994;8.184;2023-12-20T12:41:29;6.63;;;1.40;;
83487;SDS011;73424;49.994;8.184;2023-12-20T12:43:54;5.72;;;1.67;;
83487;SDS011;73424;49.994;8.184;2023-12-20T12:46:19;4.17;;;1.70;;
83487;SDS011;73424;49.994;8.184;2023-12-20T12:48:45;3.45;;;1.30;;
83487;SDS011;73424;49.994;8.184;2023-12-20T12:51:10;3.60;;;1.40;;
83487;SDS011;73424;49.994;8.184;2023-12-20T12:53:38;6.53;;;1.83;;
83487;SDS011;73424;49.994;8.184;2023-12-20T12:56:04;5.93;;;1.75;;
83487;SDS011;73424;49.994;8.184;2023-12-20T12:58:29;4.85;;;1.42;;
83487;SDS011;73424;49.994;8.184;2023-12-20T13:00:55;4.78;;;1.70;;
83487;SDS011;73424;49.994;8.184;2023-12-20T13:03:20;6.22;;;1.80;;
83487;SDS011;73424;49.994;8.184;2023-12-20T13:05:45;5.78;;;1.83;;
83487;SDS011;73424;49.994;8.184;2023-12-20T13:08:12;6.28;;;1.83;;
83487;SDS011;73424;49.994;8.184;2023-12-20T13:10:38;6.65;;;1.85;;
83487;SDS011;73424;49.994;8.184;2023-12-20T13:13:04;7.07;;;1.40;;
83487;SDS011;73424;49.994;8.184;2023-12-20T13:15:29;4.50;;;2.20;;
83487;SDS011;73424;49.994;8.184;2023-12-20T13:17:55;5.13;;;2.30;;
83487;SDS011;73424;49.994;8.184;2023-12-20T13:20:20;4.90;;;1.67;;
83487;SDS011;73424;49.994;8.184;2023-12-20T13:22:47;4.60;;;1.40;;
83487;SDS011;73424;49.994;8.184;2023-12-20T13:25:12;5.18;;;1.50;;
83487;SDS011;73424;49.994;8.184;2023-12-20T13:27:38;4.05;;;1.13;;
83487;SDS011;73424;49.994;8.184;2023-12-20T13:30:03;4.10;;;1.23;;
83487;SDS011;73424;49.994;8.184;2023-12-20T13:32:29;6.15;;;2.17;;
83487;SDS011;73424;49.994;8.184;2023-12-20T13:34:55;5.50;;;2.30;;
83487;SDS011;73424;49.994;8.184;2023-12-20T13:37:20;6.28;;;1.67;;
83487;SDS011;73424;49.994;8.184;2023-12-20T13:39:45;5.95;;;2.13;;
83487;SDS011;73424;49.994;8.184;2023-12-20T13:42:11;4.70;;;1.13;;
83487;SDS011;73424;49.994;8.184;2023-12-20T13:44:36;4.13;;;1.20;;
83487;SDS011;73424;49.994;8.184;2023-12-20T13:47:01;3.93;;;1.23;;
83487;SDS011;73424;49.994;8.184;2023-12-20T13:49:28;4.45;;;1.25;;
83487;SDS011;73424;49.994;8.184;2023-12-20T13:51:53;6.72;;;1.25;;
83487;SDS011;73424;49.994;8.184;2023-12-20T13:54:19;3.17;;;1.00;;
83487;SDS011;73424;49.994;8.184;2023-12-20T13:56:47;5.60;;;1.33;;
83487;SDS011;73424;49.994;8.184;2023-12-20T13:59:12;5.53;;;1.00;;
83487;SDS011;73424;49.994;8.184;2023-12-20T14:01:38;2.85;;;0.98;;
83487;SDS011;73424;49.994;8.184;2023-12-20T14:04:04;2.67;;;1.13;;
83487;SDS011;73424;49.994;8.184;2023-12-20T14:06:29;3.78;;;1.00;;
83487;SDS011;73424;49.994;8.184;2023-12-20T14:08:54;6.40;;;0.98;;
83487;SDS011;73424;49.994;8.184;2023-12-20T14:11:20;3.33;;;0.90;;
83487;SDS011;73424;49.994;8.184;2023-12-20T14:13:45;3.83;;;1.23;;
83487;SDS011;73424;49.994;8.184;2023-12-20T14:16:11;2.95;;;1.00;;
83487;SDS011;73424;49.994;8.184;2023-12-20T14:18:36;4.45;;;0.93;;
83487;SDS011;73424;49.994;8.184;2023-12-20T14:21:01;3.83;;;0.90;;
83487;SDS011;73424;49.994;8.184;2023-12-20T14:23:27;4.55;;;1.25;;
83487;SDS011;73424;49.994;8.184;2023-12-20T14:25:52;4.22;;;1.20;;
83487;SDS011;73424;49.994;8.184;2023-12-20T14:28:17;7.07;;;1.35;;
83487;SDS011;73424;49.994;8.184;2023-12-20T14:30:43;3.58;;;1.20;;
83487;SDS011;73424;49.994;8.184;2023-12-20T14:33:09;3.60;;;0.82;;
83487;SDS011;73424;49.994;8.184;2023-12-20T14:35:34;2.63;;;0.80;;
83487;SDS011;73424;49.994;8.184;2023-12-20T14:37:59;5.13;;;1.03;;
83487;SDS011;73424;49.994;8.184;2023-12-20T14:40:24;3.60;;;0.65;;
83487;SDS011;73424;49.994;8.184;2023-12-20T14:42:50;5.90;;;1.20;;
83487;SDS011;73424;49.994;8.184;2023-12-20T14:45:16;2.97;;;0.70;;
83487;SDS011;73424;49.994;8.184;2023-12-20T14:47:42;4.68;;;1.08;;
83487;SDS011;73424;49.994;8.184;2023-12-20T14:50:08;3.33;;;1.00;;